createdAt,value
2019-05-09T00:02:15.390Z,8.15
2019-05-09T00:04:44.947Z,8.28
2019-05-09T00:07:15.542Z,8.10
2019-05-09T00:10:38.386Z,8.25
2019-05-09T00:13:09.288Z,8.17
2019-05-09T00:15:38.828Z,8.22
2019-05-09T00:18:27.695Z,8.23
2019-05-09T00:21:13.317Z,8.15
2019-05-09T00:23:43.699Z,8.23
2019-05-09T00:26:13.556Z,8.20
2019-05-09T00:28:45.282Z,8.13
2019-05-09T00:31:16.443Z,8.10
2019-05-09T00:33:48.297Z,8.06
2019-05-09T00:36:18.080Z,8.05
2019-05-09T00:38:47.635Z,8.11
2019-05-09T00:41:17.144Z,8.03
2019-05-09T00:43:48.285Z,7.96
2019-05-09T00:46:19.459Z,8.02
2019-05-09T00:48:54.794Z,8.01
2019-05-09T00:51:24.394Z,7.98
2019-05-09T00:53:53.902Z,7.85
2019-05-09T00:56:24.065Z,8.03
2019-05-09T00:58:53.852Z,8.04
2019-05-09T01:01:24.323Z,8.06
2019-05-09T01:03:53.943Z,8.03
2019-05-09T01:06:24.161Z,7.95
2019-05-09T01:08:54.041Z,7.83
2019-05-09T01:11:24.416Z,7.86
2019-05-09T01:13:54.554Z,7.92
2019-05-09T01:16:24.455Z,7.94
2019-05-09T01:18:54.730Z,8.00
2019-05-09T01:21:24.346Z,7.96
2019-05-09T01:23:54.264Z,8.08
2019-05-09T01:26:24.348Z,7.86
2019-05-09T01:28:54.310Z,7.61
2019-05-09T01:31:24.444Z,7.84
2019-05-09T01:34:13.089Z,7.50
2019-05-09T01:36:55.668Z,7.46
2019-05-09T01:39:25.189Z,7.86
2019-05-09T01:41:54.696Z,7.65
2019-05-09T01:44:24.225Z,7.56
2019-05-09T01:46:54.129Z,7.51
2019-05-09T01:49:23.735Z,7.87
2019-05-09T01:51:53.818Z,7.93
2019-05-09T01:54:25.343Z,7.72
2019-05-09T01:56:54.852Z,7.67
2019-05-09T01:59:25.185Z,7.64
2019-05-09T02:01:54.893Z,7.78
2019-05-09T02:04:24.501Z,7.68
2019-05-09T02:06:54.071Z,7.79
2019-05-09T02:09:23.681Z,7.44
2019-05-09T02:11:54.576Z,7.40
2019-05-09T02:14:31.674Z,7.39
2019-05-09T02:17:18.698Z,7.86
2019-05-09T02:19:48.298Z,7.61
2019-05-09T02:22:37.001Z,7.88
2019-05-09T02:25:09.129Z,7.83
2019-05-09T02:27:38.652Z,7.78
2019-05-09T02:30:14.640Z,7.54
2019-05-09T02:32:44.756Z,7.38
2019-05-09T02:35:13.473Z,7.43
2019-05-09T02:37:43.009Z,7.75
2019-05-09T02:40:12.964Z,7.83
2019-05-09T02:42:42.467Z,7.69
2019-05-09T02:45:12.723Z,7.60
2019-05-09T02:47:42.251Z,7.53
2019-05-09T02:50:12.198Z,7.54
2019-05-09T02:52:41.736Z,7.45
2019-05-09T02:55:11.484Z,7.62
2019-05-09T02:57:41.151Z,7.54
2019-05-09T03:00:29.039Z,7.57
2019-05-09T03:03:19.550Z,7.48
2019-05-09T03:06:09.183Z,7.31
2019-05-09T03:08:38.468Z,7.52
2019-05-09T03:11:09.846Z,7.56
2019-05-09T03:13:39.717Z,7.52
2019-05-09T03:16:11.018Z,7.39
2019-05-09T03:18:40.562Z,7.31
2019-05-09T03:21:29.831Z,7.37
2019-05-09T03:23:59.400Z,7.61
2019-05-09T03:26:33.392Z,7.52
2019-05-09T03:29:14.394Z,7.60
2019-05-09T03:31:44.993Z,7.84
2019-05-09T03:34:14.535Z,7.73
2019-05-09T03:36:44.051Z,7.45
2019-05-09T03:39:13.578Z,7.81
2019-05-09T03:41:43.164Z,7.50
2019-05-09T03:44:12.702Z,7.74
2019-05-09T03:46:52.593Z,7.46
2019-05-09T03:49:23.790Z,7.27
2019-05-09T03:51:53.310Z,7.33
2019-05-09T03:54:22.840Z,7.42
2019-05-09T03:57:07.688Z,7.14
2019-05-09T03:59:38.096Z,7.04
2019-05-09T04:02:10.168Z,6.92
2019-05-09T04:04:39.055Z,6.86
2019-05-09T04:07:08.598Z,6.81
2019-05-09T04:09:39.809Z,6.79
2019-05-09T04:12:09.384Z,7.10
2019-05-09T04:14:39.078Z,6.90
2019-05-09T04:17:10.246Z,6.78
2019-05-09T04:19:40.524Z,6.67
2019-05-09T04:22:10.193Z,6.68
2019-05-09T04:24:39.722Z,6.71
2019-05-09T04:27:10.889Z,6.91
2019-05-09T04:29:40.393Z,6.92
2019-05-09T04:32:09.926Z,6.72
2019-05-09T04:34:39.443Z,6.67
2019-05-09T04:37:12.050Z,6.54
2019-05-09T04:39:40.684Z,6.73
2019-05-09T04:42:10.330Z,6.47
2019-05-09T04:44:41.471Z,6.33
2019-05-09T04:47:10.998Z,6.54
2019-05-09T04:49:45.017Z,6.51
2019-05-09T04:52:11.750Z,6.80
2019-05-09T04:54:41.342Z,6.97
2019-05-09T04:57:10.879Z,7.06
2019-05-09T04:59:40.395Z,7.09
2019-05-09T05:02:21.365Z,7.01
2019-05-09T05:04:50.900Z,7.26
2019-05-09T05:07:20.732Z,7.25
2019-05-09T05:09:50.238Z,7.65
2019-05-09T05:12:19.755Z,7.72
2019-05-09T05:14:49.273Z,8.16
2019-05-09T05:17:18.807Z,8.27
2019-05-09T05:19:49.188Z,8.34
2019-05-09T05:22:20.357Z,8.29
2019-05-09T05:24:55.259Z,8.51
2019-05-09T05:27:22.797Z,8.15
2019-05-09T05:29:52.313Z,8.09
2019-05-09T05:32:23.482Z,8.07
2019-05-09T05:34:58.546Z,8.21
2019-05-09T05:37:28.736Z,8.00
2019-05-09T05:39:58.471Z,7.94
2019-05-09T05:42:28.380Z,7.96
2019-05-09T05:44:58.354Z,8.91
2019-05-09T05:47:38.751Z,11.89
2019-05-09T05:50:09.521Z,16.02
2019-05-09T05:52:39.035Z,15.88
2019-05-09T05:55:09.018Z,16.44
2019-05-09T05:57:38.749Z,16.48
2019-05-09T06:00:10.834Z,17.42
2019-05-09T06:02:40.353Z,15.56
2019-05-09T06:05:09.876Z,15.29
2019-05-09T06:07:39.405Z,17.99
2019-05-09T06:10:09.009Z,20.01
2019-05-09T06:12:38.527Z,19.35
2019-05-09T06:15:08.508Z,20.59
2019-05-09T06:17:38.194Z,21.25
2019-05-09T06:20:09.149Z,20.24
2019-05-09T06:22:38.697Z,20.22
2019-05-09T06:25:09.637Z,20.09
2019-05-09T06:27:42.284Z,21.86
2019-05-09T06:30:11.303Z,22.00
2019-05-09T06:32:40.836Z,23.70
2019-05-09T06:35:15.050Z,23.08
2019-05-09T06:37:44.667Z,22.30
2019-05-09T06:40:21.420Z,21.65
2019-05-09T06:42:50.360Z,21.92
2019-05-09T06:45:41.383Z,22.22
2019-05-09T06:48:09.272Z,24.58
2019-05-09T06:50:38.838Z,22.43
2019-05-09T06:53:08.380Z,23.31
2019-05-09T06:55:38.511Z,22.69
2019-05-09T06:58:27.705Z,24.30
2019-05-09T07:01:11.611Z,24.73
2019-05-09T07:03:45.431Z,26.28
2019-05-09T07:06:17.819Z,27.61
2019-05-09T07:08:47.717Z,23.87
2019-05-09T07:11:19.207Z,23.16
2019-05-09T07:13:49.016Z,22.73
2019-05-09T07:16:18.845Z,23.41
2019-05-09T07:18:48.599Z,23.41
2019-05-09T07:21:19.005Z,23.63
2019-05-09T07:23:48.682Z,23.67
2019-05-09T07:26:22.994Z,24.34
2019-05-09T07:28:52.513Z,21.96
2019-05-09T07:31:29.508Z,22.49
2019-05-09T07:34:08.387Z,24.49
2019-05-09T07:36:38.391Z,26.21
2019-05-09T07:39:09.048Z,26.59
2019-05-09T07:41:38.616Z,26.12
2019-05-09T07:44:08.142Z,24.77
2019-05-09T07:46:39.285Z,23.03
2019-05-09T07:49:09.164Z,23.96
2019-05-09T07:51:38.688Z,25.79
2019-05-09T07:54:21.148Z,24.45
2019-05-09T07:56:39.461Z,23.89
2019-05-09T07:59:08.982Z,24.27
2019-05-09T08:01:38.648Z,24.88
2019-05-09T08:04:08.255Z,23.76
2019-05-09T08:06:38.119Z,22.55
2019-05-09T08:09:08.621Z,24.89
2019-05-09T08:11:38.172Z,24.36
2019-05-09T08:14:08.632Z,26.07
2019-05-09T08:16:39.022Z,24.60
2019-05-09T08:19:08.536Z,20.28
2019-05-09T08:21:38.476Z,19.76
2019-05-09T08:24:08.859Z,22.40
2019-05-09T08:26:39.508Z,24.89
2019-05-09T08:29:09.568Z,24.95
2019-05-09T08:31:40.355Z,24.98
2019-05-09T08:34:10.070Z,26.75
2019-05-09T08:36:39.669Z,24.31
2019-05-09T08:39:09.976Z,23.34
2019-05-09T08:41:39.483Z,25.30
2019-05-09T08:44:09.095Z,25.43
2019-05-09T08:46:38.610Z,24.14
2019-05-09T08:49:08.414Z,24.30
2019-05-09T08:52:10.209Z,24.86
2019-05-09T08:54:42.696Z,25.39
2019-05-09T08:57:12.375Z,23.62
2019-05-09T08:59:41.892Z,25.94
2019-05-09T09:02:15.857Z,25.18
2019-05-09T09:04:42.667Z,24.31
2019-05-09T09:07:12.895Z,23.15
2019-05-09T09:09:42.412Z,22.23
2019-05-09T09:12:26.069Z,24.05
2019-05-09T09:14:43.117Z,23.05
2019-05-09T09:17:12.613Z,21.94
2019-05-09T09:19:42.090Z,20.88
2019-05-09T09:22:11.581Z,19.98
2019-05-09T09:24:41.143Z,18.78
2019-05-09T09:27:10.619Z,20.49
2019-05-09T09:29:40.108Z,22.01
2019-05-09T09:32:09.588Z,23.15
2019-05-09T09:34:39.067Z,26.18
2019-05-09T09:37:11.487Z,25.38
2019-05-09T09:39:44.297Z,26.03
2019-05-09T09:42:10.990Z,23.74
2019-05-09T09:44:40.481Z,19.64
2019-05-09T09:47:10.047Z,21.30
2019-05-09T09:49:39.632Z,24.69
2019-05-09T09:52:09.353Z,22.96
2019-05-09T09:54:38.930Z,22.83
2019-05-09T09:57:09.696Z,21.18
2019-05-09T09:59:48.117Z,19.40
2019-05-09T10:02:21.227Z,18.66
2019-05-09T10:04:50.693Z,17.97
2019-05-09T10:07:20.260Z,17.50
2019-05-09T10:09:49.793Z,17.61
2019-05-09T10:12:19.232Z,17.32
2019-05-09T10:14:50.372Z,17.40
2019-05-09T10:17:38.686Z,17.72
2019-05-09T10:20:29.165Z,20.65
2019-05-09T10:23:09.003Z,19.99
2019-05-09T10:25:29.460Z,18.31
2019-05-09T10:27:58.964Z,17.45
2019-05-09T10:30:34.511Z,17.25
2019-05-09T10:33:04.078Z,17.29
2019-05-09T10:35:33.572Z,18.41
2019-05-09T10:38:03.071Z,18.34
2019-05-09T10:40:32.633Z,19.75
2019-05-09T10:43:31.545Z,21.77
2019-05-09T10:46:04.360Z,20.06
2019-05-09T10:48:33.837Z,19.79
2019-05-09T10:51:05.997Z,20.29
2019-05-09T10:53:34.600Z,18.48
2019-05-09T10:56:04.100Z,17.46
2019-05-09T10:58:33.600Z,17.15
2019-05-09T11:01:03.121Z,16.68
2019-05-09T11:03:32.694Z,16.32
2019-05-09T11:06:02.215Z,15.96
2019-05-09T11:08:31.711Z,15.91
2019-05-09T11:11:01.220Z,15.57
2019-05-09T11:13:30.714Z,15.41
2019-05-09T11:16:00.206Z,15.44
2019-05-09T11:18:29.696Z,15.33
2019-05-09T11:20:59.181Z,15.81
2019-05-09T11:23:29.286Z,15.96
2019-05-09T11:25:58.739Z,15.61
2019-05-09T11:28:28.644Z,15.47
2019-05-09T11:31:18.662Z,14.99
2019-05-09T11:34:01.613Z,14.53
2019-05-09T11:36:31.109Z,13.67
2019-05-09T11:39:00.953Z,14.51
2019-05-09T11:41:30.545Z,14.55
2019-05-09T11:44:00.119Z,14.71
2019-05-09T11:46:29.641Z,14.83
2019-05-09T11:48:59.698Z,14.66
2019-05-09T11:51:29.628Z,14.38
2019-05-09T11:53:59.242Z,14.83
2019-05-09T11:56:29.377Z,14.99
2019-05-09T11:58:58.869Z,15.10
2019-05-09T12:01:29.319Z,15.85
2019-05-09T12:03:58.932Z,16.35
2019-05-09T12:06:29.314Z,16.54
2019-05-09T12:08:59.164Z,17.31
2019-05-09T12:11:48.502Z,18.31
2019-05-09T12:14:32.190Z,19.51
2019-05-09T12:17:01.759Z,21.10
2019-05-09T12:19:31.250Z,18.82
2019-05-09T12:22:00.805Z,19.78
2019-05-09T12:24:30.318Z,20.09
2019-05-09T12:27:02.848Z,18.76
2019-05-09T12:29:30.982Z,19.07
2019-05-09T12:32:00.470Z,18.42
2019-05-09T12:34:29.979Z,19.10
2019-05-09T12:36:59.496Z,18.41
2019-05-09T12:39:28.993Z,19.38
2019-05-09T12:41:58.463Z,19.58
2019-05-09T12:44:28.812Z,19.15
2019-05-09T12:46:58.442Z,17.98
2019-05-09T12:49:28.358Z,17.08
2019-05-09T12:52:18.621Z,17.75
2019-05-09T12:54:48.568Z,17.80
2019-05-09T12:57:19.272Z,17.31
2019-05-09T12:59:52.661Z,17.84
2019-05-09T13:02:20.278Z,17.52
2019-05-09T13:04:49.927Z,17.03
2019-05-09T13:07:19.983Z,16.68
2019-05-09T13:09:52.594Z,17.24
2019-05-09T13:12:21.100Z,16.89
2019-05-09T13:14:50.610Z,16.36
2019-05-09T13:17:22.110Z,16.37
2019-05-09T13:19:51.586Z,16.75
2019-05-09T13:22:21.068Z,17.90
2019-05-09T13:24:50.566Z,17.75
2019-05-09T13:27:20.065Z,17.13
2019-05-09T13:29:49.791Z,17.35
2019-05-09T13:32:19.277Z,17.72
2019-05-09T13:34:48.889Z,18.30
2019-05-09T13:37:18.998Z,18.57
2019-05-09T13:39:48.740Z,18.93
2019-05-09T13:42:19.513Z,18.63
2019-05-09T13:44:49.445Z,18.23
2019-05-09T13:47:18.941Z,18.30
2019-05-09T13:49:48.583Z,19.29
2019-05-09T13:52:18.223Z,19.48
2019-05-09T13:54:48.407Z,19.06
2019-05-09T13:57:18.794Z,18.35
2019-05-09T13:59:48.790Z,18.49
2019-05-09T14:02:18.998Z,18.43
2019-05-09T14:04:49.764Z,17.79
2019-05-09T14:07:19.559Z,18.02
2019-05-09T14:09:49.124Z,18.72
2019-05-09T14:12:18.602Z,17.89
2019-05-09T14:14:48.104Z,18.02
2019-05-09T14:17:19.212Z,18.06
2019-05-09T14:19:51.163Z,18.44
2019-05-09T14:22:20.146Z,18.60
2019-05-09T14:24:49.733Z,17.71
2019-05-09T14:27:19.238Z,17.51
2019-05-09T14:29:49.754Z,16.97
2019-05-09T14:32:19.404Z,16.41
2019-05-09T14:35:19.818Z,14.85
2019-05-09T14:38:02.374Z,14.29
2019-05-09T14:40:51.335Z,12.81
2019-05-09T14:43:20.843Z,12.53
2019-05-09T14:45:50.324Z,12.43
2019-05-09T14:48:19.826Z,12.60
2019-05-09T14:50:49.665Z,13.02
2019-05-09T14:53:19.172Z,13.39
2019-05-09T14:55:48.670Z,13.43
2019-05-09T14:58:18.249Z,13.58
2019-05-09T15:00:48.199Z,13.73
2019-05-09T15:03:18.955Z,14.02
2019-05-09T15:05:48.479Z,14.07
2019-05-09T15:08:18.204Z,13.96
2019-05-09T15:10:47.715Z,13.99
2019-05-09T15:13:18.389Z,14.11
2019-05-09T15:15:48.121Z,13.98
2019-05-09T15:18:17.738Z,13.64
2019-05-09T15:20:47.939Z,13.32
2019-05-09T15:23:19.696Z,13.28
2019-05-09T15:25:48.605Z,13.21
2019-05-09T15:28:18.093Z,13.49
2019-05-09T15:30:48.898Z,13.97
2019-05-09T15:33:18.543Z,13.92
2019-05-09T15:35:48.734Z,14.08
2019-05-09T15:38:18.348Z,14.39
2019-05-09T15:40:48.269Z,14.11
2019-05-09T15:43:18.569Z,13.97
2019-05-09T15:45:49.902Z,13.98
2019-05-09T15:48:19.393Z,14.02
2019-05-09T15:50:49.052Z,14.08
2019-05-09T15:53:18.584Z,14.55
2019-05-09T15:55:48.164Z,14.82
2019-05-09T15:58:18.763Z,14.98
2019-05-09T16:00:48.596Z,14.82
2019-05-09T16:03:18.664Z,14.84
2019-05-09T16:05:48.324Z,15.10
2019-05-09T16:08:18.705Z,14.89
2019-05-09T16:10:48.288Z,14.82
2019-05-09T16:13:17.892Z,14.85
2019-05-09T16:15:48.607Z,14.87
2019-05-09T16:18:18.298Z,14.55
2019-05-09T16:20:48.676Z,14.32
2019-05-09T16:23:19.105Z,14.45
2019-05-09T16:25:48.623Z,14.26
2019-05-09T16:28:18.667Z,14.24
2019-05-09T16:30:59.117Z,14.21
2019-05-09T16:33:29.854Z,14.22
2019-05-09T16:35:59.357Z,14.32
2019-05-09T16:38:42.157Z,14.59
2019-05-09T16:41:00.060Z,14.54
2019-05-09T16:43:29.623Z,14.57
2019-05-09T16:45:59.627Z,14.67
2019-05-09T16:48:29.119Z,14.86
2019-05-09T16:51:03.140Z,14.81
2019-05-09T16:53:29.904Z,14.88
2019-05-09T16:55:59.400Z,14.87
2019-05-09T16:58:28.891Z,14.82
2019-05-09T17:00:58.385Z,14.75
2019-05-09T17:03:28.465Z,14.66
2019-05-09T17:05:58.394Z,14.78
2019-05-09T17:08:28.399Z,14.91
2019-05-09T17:10:58.740Z,14.90
2019-05-09T17:13:29.054Z,14.90
2019-05-09T17:15:58.624Z,14.97
2019-05-09T17:18:28.535Z,15.03
2019-05-09T17:21:00.050Z,14.87
2019-05-09T17:23:30.013Z,14.89
2019-05-09T17:25:59.488Z,14.51
2019-05-09T17:28:29.015Z,14.32
2019-05-09T17:30:58.504Z,14.24
2019-05-09T17:33:28.647Z,14.28
2019-05-09T17:35:58.373Z,14.35
2019-05-09T17:38:28.043Z,14.32
2019-05-09T17:40:57.909Z,14.07
2019-05-09T17:43:27.976Z,14.03
2019-05-09T17:45:58.647Z,13.86
2019-05-09T17:48:28.824Z,13.78
2019-05-09T17:50:58.438Z,13.71
2019-05-09T17:53:29.315Z,13.67
2019-05-09T17:55:59.166Z,13.74
2019-05-09T17:58:33.000Z,13.59
2019-05-09T18:00:59.952Z,13.58
2019-05-09T18:03:29.442Z,13.59
2019-05-09T18:05:58.935Z,13.38
2019-05-09T18:08:28.596Z,13.44
2019-05-09T18:10:58.551Z,13.39
2019-05-09T18:13:30.594Z,13.41
2019-05-09T18:15:59.398Z,13.22
2019-05-09T18:18:28.906Z,13.18
2019-05-09T18:20:58.424Z,13.15
2019-05-09T18:23:28.483Z,12.84
2019-05-09T18:25:58.760Z,12.83
2019-05-09T18:28:29.344Z,12.88
2019-05-09T18:30:58.877Z,12.84
2019-05-09T18:33:30.082Z,12.70
2019-05-09T18:35:59.634Z,12.67
2019-05-09T18:38:32.640Z,12.70
2019-05-09T18:41:02.640Z,12.52
2019-05-09T18:43:32.266Z,12.37
2019-05-09T18:46:01.755Z,12.23
2019-05-09T18:48:31.368Z,12.31
2019-05-09T18:51:00.866Z,12.38
2019-05-09T18:53:30.374Z,12.49
2019-05-09T18:56:00.025Z,12.44
2019-05-09T18:58:29.520Z,12.32
2019-05-09T19:00:59.593Z,12.23
2019-05-09T19:03:29.122Z,12.19
2019-05-09T19:05:58.629Z,12.17
2019-05-09T19:08:28.116Z,12.16
2019-05-09T19:10:57.669Z,12.06
2019-05-09T19:13:40.397Z,12.08
2019-05-09T19:16:17.289Z,12.17
2019-05-09T19:18:54.162Z,12.02
2019-05-09T19:21:28.016Z,11.83
2019-05-09T19:23:57.498Z,11.77
2019-05-09T19:26:28.619Z,11.92
2019-05-09T19:28:58.135Z,11.84
2019-05-09T19:31:27.586Z,11.76
2019-05-09T19:33:57.095Z,11.80
2019-05-09T19:36:26.661Z,11.69
2019-05-09T19:38:56.166Z,11.66
2019-05-09T19:41:25.655Z,11.59
2019-05-09T19:43:55.131Z,11.60
2019-05-09T19:46:24.669Z,11.58
2019-05-09T19:48:54.141Z,11.54
2019-05-09T19:51:23.628Z,11.45
2019-05-09T19:53:53.134Z,11.39
2019-05-09T19:56:22.821Z,11.47
2019-05-09T19:58:52.389Z,11.50
2019-05-09T20:01:21.868Z,11.54
2019-05-09T20:03:51.370Z,11.39
2019-05-09T20:06:20.933Z,11.45
2019-05-09T20:08:50.462Z,11.33
2019-05-09T20:11:37.349Z,11.34
2019-05-09T20:14:11.607Z,11.31
2019-05-09T20:16:48.744Z,11.31
2019-05-09T20:19:18.236Z,11.38
2019-05-09T20:21:47.734Z,11.32
2019-05-09T20:24:17.254Z,11.39
2019-05-09T20:26:46.719Z,11.42
2019-05-09T20:29:16.794Z,11.47
2019-05-09T20:31:46.359Z,11.54
2019-05-09T20:34:15.852Z,11.56
2019-05-09T20:36:45.328Z,11.38
2019-05-09T20:39:15.025Z,11.33
2019-05-09T20:41:45.397Z,11.48
2019-05-09T20:44:15.027Z,11.40
2019-05-09T20:46:44.708Z,11.34
2019-05-09T20:49:14.389Z,11.39
2019-05-09T20:51:44.052Z,11.40
2019-05-09T20:54:21.019Z,11.53
2019-05-09T20:56:45.146Z,11.42
2019-05-09T20:59:14.822Z,11.36
2019-05-09T21:01:44.524Z,11.44
2019-05-09T21:04:14.230Z,11.52
2019-05-09T21:06:43.910Z,11.52
2019-05-09T21:09:13.583Z,11.34
2019-05-09T21:11:43.292Z,11.18
2019-05-09T21:14:12.926Z,11.16
2019-05-09T21:16:42.624Z,11.18
2019-05-09T21:19:12.301Z,11.14
2019-05-09T21:21:41.978Z,11.12
2019-05-09T21:24:11.721Z,11.14
2019-05-09T21:26:41.398Z,11.06
2019-05-09T21:29:11.067Z,11.06
2019-05-09T21:31:40.742Z,10.99
2019-05-09T21:34:10.860Z,11.06
2019-05-09T21:36:40.529Z,11.09
2019-05-09T21:39:10.035Z,10.99
2019-05-09T21:41:39.518Z,10.98
2019-05-09T21:44:09.077Z,10.96
2019-05-09T21:46:38.939Z,10.81
2019-05-09T21:49:08.442Z,10.86
2019-05-09T21:51:37.985Z,10.96
2019-05-09T21:54:07.453Z,10.84
2019-05-09T21:56:36.944Z,10.87
2019-05-09T21:59:07.322Z,10.88
2019-05-09T22:01:36.942Z,10.92
2019-05-09T22:04:06.465Z,10.66
2019-05-09T22:06:36.012Z,10.45
2019-05-09T22:09:09.729Z,10.23
2019-05-09T22:11:39.415Z,10.16
2019-05-09T22:14:08.875Z,9.97
2019-05-09T22:16:38.504Z,10.08
2019-05-09T22:19:07.979Z,10.16
2019-05-09T22:21:37.545Z,10.06
2019-05-09T22:24:07.076Z,9.93
2019-05-09T22:26:36.558Z,9.99
2019-05-09T22:29:06.105Z,9.98
2019-05-09T22:31:35.620Z,10.05
2019-05-09T22:34:05.100Z,9.91
2019-05-09T22:36:34.594Z,9.93
2019-05-09T22:39:05.299Z,9.91
2019-05-09T22:41:34.970Z,10.00
2019-05-09T22:44:04.556Z,9.99
2019-05-09T22:46:34.029Z,10.04
2019-05-09T22:49:03.550Z,9.99
2019-05-09T22:51:33.756Z,10.01
2019-05-09T22:54:12.333Z,10.04
2019-05-09T22:56:34.453Z,10.09
2019-05-09T22:59:03.957Z,10.09
2019-05-09T23:01:33.426Z,10.12
2019-05-09T23:04:02.910Z,10.12
2019-05-09T23:06:32.402Z,10.11
2019-05-09T23:09:01.882Z,10.15
2019-05-09T23:11:31.370Z,10.22
2019-05-09T23:14:00.874Z,10.16
2019-05-09T23:16:32.003Z,10.21
2019-05-09T23:19:01.497Z,10.19
2019-05-09T23:21:30.954Z,10.18
2019-05-09T23:24:05.056Z,10.23
2019-05-09T23:26:34.544Z,10.24
2019-05-09T23:29:23.376Z,10.19
2019-05-09T23:32:24.433Z,10.24
2019-05-09T23:35:13.258Z,10.23
2019-05-09T23:37:42.735Z,10.17
2019-05-09T23:40:12.752Z,10.12
2019-05-09T23:42:42.216Z,10.11
2019-05-09T23:45:11.792Z,10.05
2019-05-09T23:47:41.258Z,10.02
2019-05-09T23:50:10.957Z,9.98
2019-05-09T23:52:40.401Z,10.07
2019-05-09T23:55:27.779Z,9.96
2019-05-09T23:58:14.751Z,9.92
